createdAt,value
2022-08-20T00:00:10.086Z,19.6
2022-08-20T00:05:10.082Z,19.5
2022-08-20T00:10:10.098Z,19.3
2022-08-20T00:15:10.087Z,19.2
2022-08-20T00:20:10.098Z,19.1
2022-08-20T00:25:10.099Z,19
2022-08-20T00:30:10.111Z,18.9
2022-08-20T00:35:12.892Z,18.9
2022-08-20T00:40:22.633Z,19.2
2022-08-20T00:45:10.085Z,19.2
2022-08-20T00:50:10.100Z,19.4
2022-08-20T00:55:10.084Z,19.4
2022-08-20T01:00:10.091Z,19.2
2022-08-20T01:05:10.078Z,18.8
2022-08-20T01:10:10.094Z,18.4
2022-08-20T01:15:10.084Z,18.2
2022-08-20T01:20:10.085Z,18.1
2022-08-20T01:25:10.086Z,18
2022-08-20T01:30:10.100Z,18
2022-08-20T01:35:10.088Z,18.2
2022-08-20T01:40:10.128Z,18.3
2022-08-20T01:45:10.095Z,18.7
2022-08-20T01:50:10.097Z,19.2
2022-08-20T01:55:10.087Z,19.2
2022-08-20T02:00:10.969Z,19.4
2022-08-20T02:05:10.090Z,19.4
2022-08-20T02:10:10.093Z,19.5
2022-08-20T02:15:10.088Z,19.4
2022-08-20T02:20:10.092Z,19.4
2022-08-20T02:25:10.134Z,19.4
2022-08-20T02:30:10.092Z,19.2
2022-08-20T02:35:10.092Z,19.1
2022-08-20T02:40:10.170Z,19.1
2022-08-20T02:45:10.079Z,19.1
2022-08-20T02:50:10.093Z,19
2022-08-20T02:55:10.095Z,18.8
2022-08-20T03:00:10.099Z,18.9
2022-08-20T03:05:10.085Z,18.7
2022-08-20T03:10:10.095Z,18.6
2022-08-20T03:15:17.331Z,18.5
2022-08-20T03:20:10.100Z,18.6
2022-08-20T03:25:10.089Z,18.7
2022-08-20T03:30:10.105Z,18.7
2022-08-20T03:35:10.104Z,18.6
2022-08-20T03:40:10.129Z,18.6
2022-08-20T03:45:10.085Z,18.6
2022-08-20T03:50:10.102Z,18.5
2022-08-20T03:55:10.099Z,18.5
2022-08-20T04:00:10.091Z,18.4
2022-08-20T04:05:10.093Z,18.5
2022-08-20T04:10:10.088Z,18.5
2022-08-20T04:15:10.096Z,18.5
2022-08-20T04:20:10.105Z,18.5
2022-08-20T04:25:10.091Z,18.5
2022-08-20T04:30:10.092Z,18.5
2022-08-20T04:35:10.099Z,18.6
2022-08-20T04:40:10.156Z,18.6
2022-08-20T04:45:10.088Z,18.5
2022-08-20T04:50:10.532Z,18.6
2022-08-20T04:55:10.086Z,18.6
2022-08-20T05:00:10.097Z,18.6
2022-08-20T05:05:10.080Z,18.7
2022-08-20T05:10:10.092Z,18.7
2022-08-20T05:15:10.087Z,18.8
2022-08-20T05:20:10.096Z,18.9
2022-08-20T05:25:10.084Z,18.9
2022-08-20T05:30:10.198Z,18.9
2022-08-20T05:35:10.084Z,19
2022-08-20T05:40:10.235Z,19.1
2022-08-20T05:45:11.028Z,19.1
2022-08-20T05:50:10.088Z,19.1
2022-08-20T05:55:10.090Z,19.2
2022-08-20T06:00:10.101Z,19.2
2022-08-20T06:05:10.082Z,19.3
2022-08-20T06:10:10.090Z,19.4
2022-08-20T06:15:10.090Z,19.5
2022-08-20T06:20:10.104Z,19.6
2022-08-20T06:25:10.085Z,19.7
2022-08-20T06:30:10.084Z,19.9
2022-08-20T06:35:10.085Z,19.9
2022-08-20T06:40:10.185Z,20.3
2022-08-20T06:45:10.080Z,20.3
2022-08-20T06:50:10.089Z,20.4
2022-08-20T06:55:10.085Z,20.4
2022-08-20T07:00:10.094Z,20.5
2022-08-20T07:05:10.094Z,20.5
2022-08-20T07:10:10.082Z,20.6
2022-08-20T07:15:10.099Z,20.6
2022-08-20T07:20:10.109Z,20.6
2022-08-20T07:25:10.083Z,20.6
2022-08-20T07:30:12.837Z,20.5
2022-08-20T07:35:10.090Z,20.8
2022-08-20T07:40:10.114Z,20.9
2022-08-20T07:45:10.084Z,20.8
2022-08-20T07:50:10.103Z,21
2022-08-20T07:55:10.089Z,21.1
2022-08-20T08:00:10.092Z,21.1
2022-08-20T08:05:10.097Z,20.9
2022-08-20T08:10:10.091Z,20.9
2022-08-20T08:15:10.088Z,20.9
2022-08-20T08:20:10.119Z,20.9
2022-08-20T08:25:10.099Z,20.9
2022-08-20T08:30:10.113Z,20.8
2022-08-20T08:35:10.110Z,20.9
2022-08-20T08:40:10.133Z,21
2022-08-20T08:45:10.093Z,20.9
2022-08-20T08:50:10.099Z,21
2022-08-20T08:55:10.088Z,20.9
2022-08-20T09:00:10.093Z,20.9
2022-08-20T09:05:10.099Z,20.9
2022-08-20T09:10:10.096Z,20.8
2022-08-20T09:15:10.106Z,21
2022-08-20T09:20:10.097Z,21.1
2022-08-20T09:25:10.087Z,21.1
2022-08-20T09:30:10.106Z,21
2022-08-20T09:35:10.097Z,21.2
2022-08-20T09:40:10.113Z,21.2
2022-08-20T09:45:10.827Z,21.1
2022-08-20T09:50:10.095Z,21.1
2022-08-20T09:55:10.091Z,20
2022-08-20T10:00:10.090Z,19.9
2022-08-20T10:05:11.598Z,20
2022-08-20T10:10:10.090Z,20.1
2022-08-20T10:15:10.093Z,20.4
2022-08-20T10:20:10.091Z,20.6
2022-08-20T10:25:10.083Z,20.8
2022-08-20T10:30:10.106Z,21.1
2022-08-20T10:35:10.080Z,21.6
2022-08-20T10:40:10.143Z,21.9
2022-08-20T10:45:10.075Z,22.3
2022-08-20T10:50:10.099Z,22.7
2022-08-20T10:55:10.092Z,22.7
2022-08-20T11:00:10.096Z,23.2
2022-08-20T11:05:10.100Z,23.4
2022-08-20T11:10:13.569Z,24
2022-08-20T11:15:10.087Z,23.3
2022-08-20T11:20:10.091Z,22.9
2022-08-20T11:25:10.091Z,22.9
2022-08-20T11:30:10.101Z,22.8
2022-08-20T11:35:38.761Z,22.9
2022-08-20T11:40:10.167Z,23
2022-08-20T11:45:10.087Z,23
2022-08-20T11:50:10.145Z,22.5
2022-08-20T11:55:10.085Z,22.2
2022-08-20T12:00:10.095Z,22.2
2022-08-20T12:05:10.093Z,22.2
2022-08-20T12:10:10.099Z,22.2
2022-08-20T12:15:10.088Z,22
2022-08-20T12:20:10.098Z,22
2022-08-20T12:25:10.090Z,22.1
2022-08-20T12:30:10.095Z,22.1
2022-08-20T12:35:10.097Z,22.3
2022-08-20T12:40:10.143Z,22.2
2022-08-20T12:45:10.083Z,22.5
2022-08-20T12:50:10.097Z,23
2022-08-20T12:55:10.095Z,23.1
2022-08-20T13:00:10.088Z,23.2
2022-08-20T13:05:10.082Z,23.3
2022-08-20T13:10:10.088Z,23.4
2022-08-20T13:15:10.088Z,23.2
2022-08-20T13:20:10.102Z,22.8
2022-08-20T13:25:10.081Z,23
2022-08-20T13:30:10.094Z,22.9
2022-08-20T13:35:10.086Z,22
2022-08-20T13:40:10.138Z,20.7
2022-08-20T13:45:10.095Z,20.3
2022-08-20T13:50:10.112Z,19.9
2022-08-20T13:55:10.084Z,20.3
2022-08-20T14:00:10.099Z,21
2022-08-20T14:05:10.456Z,22
2022-08-20T14:10:10.086Z,22.3
2022-08-20T14:15:10.104Z,22.9
2022-08-20T14:20:10.100Z,22.9
2022-08-20T14:25:10.102Z,23.4
2022-08-20T14:30:10.102Z,23.6
2022-08-20T14:35:10.086Z,23.9
2022-08-20T14:40:10.158Z,23.9
2022-08-20T14:45:10.092Z,24.3
2022-08-20T14:50:10.094Z,24
2022-08-20T14:55:10.093Z,24.1
2022-08-20T15:00:10.096Z,24.2
2022-08-20T15:05:10.082Z,24.7
2022-08-20T15:10:10.091Z,24.8
2022-08-20T15:15:13.362Z,24.5
2022-08-20T15:20:10.101Z,24.5
2022-08-20T15:25:10.085Z,24.4
2022-08-20T15:30:10.092Z,24
2022-08-20T15:35:10.084Z,23.8
2022-08-20T15:40:10.165Z,23.5
2022-08-20T15:45:10.097Z,23.5
2022-08-20T15:50:13.926Z,23.4
2022-08-20T15:55:10.091Z,23.1
2022-08-20T16:00:10.087Z,21.9
2022-08-20T16:05:10.100Z,20.3
2022-08-20T16:10:12.856Z,20.2
2022-08-20T16:15:10.092Z,20.2
2022-08-20T16:20:10.122Z,20
2022-08-20T16:25:10.100Z,20
2022-08-20T16:30:10.107Z,20.1
2022-08-20T16:35:10.089Z,20.2
2022-08-20T16:40:10.162Z,19.9
2022-08-20T16:45:10.101Z,19.8
2022-08-20T16:50:10.093Z,19.8
2022-08-20T16:55:10.093Z,19.9
2022-08-20T17:00:10.101Z,20.4
2022-08-20T17:05:10.102Z,20.9
2022-08-20T17:10:10.089Z,21.4
2022-08-20T17:15:10.097Z,22
2022-08-20T17:20:13.204Z,21.8
2022-08-20T17:25:10.095Z,21.8
2022-08-20T17:30:10.087Z,21.8
2022-08-20T17:35:10.105Z,21.3
2022-08-20T17:40:10.166Z,21.3
2022-08-20T17:45:10.086Z,21.3
2022-08-20T17:50:10.092Z,21.2
2022-08-20T17:55:10.084Z,20.9
2022-08-20T18:00:10.088Z,20.9
2022-08-20T18:05:10.086Z,20.8
2022-08-20T18:10:10.093Z,20.7
2022-08-20T18:15:10.087Z,20.4
2022-08-20T18:20:10.093Z,20.4
2022-08-20T18:25:10.088Z,19.9
2022-08-20T18:30:10.099Z,19.9
2022-08-20T18:35:10.083Z,19.7
2022-08-20T18:40:10.176Z,19.6
2022-08-20T18:45:10.088Z,19.5
2022-08-20T18:50:15.803Z,19.4
2022-08-20T18:55:10.080Z,19.4
2022-08-20T19:00:10.087Z,19.2
2022-08-20T19:05:10.092Z,19.1
2022-08-20T19:10:10.929Z,19
2022-08-20T19:15:10.099Z,19
2022-08-20T19:20:10.094Z,18.9
2022-08-20T19:25:10.078Z,18.7
2022-08-20T19:30:10.095Z,18.5
2022-08-20T19:35:10.121Z,18.5
2022-08-20T19:40:10.144Z,18.3
2022-08-20T19:45:10.087Z,18.2
2022-08-20T19:50:10.097Z,18.1
2022-08-20T19:55:10.087Z,18
2022-08-20T20:00:10.177Z,17.9
2022-08-20T20:05:10.090Z,17.8
2022-08-20T20:10:10.090Z,17.8
2022-08-20T20:15:10.093Z,17.8
2022-08-20T20:20:10.093Z,17.7
2022-08-20T20:25:10.082Z,17.7
2022-08-20T20:30:10.096Z,17.7
2022-08-20T20:35:10.089Z,17.6
2022-08-20T20:40:12.357Z,17.6
2022-08-20T20:45:10.089Z,17.6
2022-08-20T20:50:10.093Z,17.6
2022-08-20T20:55:10.088Z,17.6
2022-08-20T21:00:10.094Z,17.6
2022-08-20T21:05:10.086Z,17.7
2022-08-20T21:10:10.093Z,17.6
2022-08-20T21:15:10.079Z,17.7
2022-08-20T21:20:10.090Z,17.7
2022-08-20T21:25:10.091Z,17.6
2022-08-20T21:30:10.092Z,17.6
2022-08-20T21:35:10.083Z,17.5
2022-08-20T21:40:10.159Z,17.5
2022-08-20T21:45:10.082Z,18.2
2022-08-20T21:50:10.111Z,18.8
2022-08-20T21:55:10.091Z,18.9
2022-08-20T22:00:10.095Z,18.9
2022-08-20T22:05:10.098Z,18.7
2022-08-20T22:10:10.094Z,18.5
2022-08-20T22:15:10.105Z,18.5
2022-08-20T22:20:10.112Z,18.5
2022-08-20T22:25:10.240Z,18.4
2022-08-20T22:30:10.182Z,18.4
2022-08-20T22:35:10.119Z,18.2
2022-08-20T22:40:10.197Z,17.8
2022-08-20T22:45:11.674Z,17.5
2022-08-20T22:50:10.138Z,17.3
2022-08-20T22:55:10.084Z,17.1
2022-08-20T23:00:10.192Z,17.1
2022-08-20T23:05:10.083Z,16.9
2022-08-20T23:10:10.139Z,16.8
2022-08-20T23:15:10.155Z,16.6
2022-08-20T23:20:10.196Z,16.5
2022-08-20T23:25:10.134Z,16.4
2022-08-20T23:30:10.167Z,16.4
2022-08-20T23:35:10.310Z,16.3
2022-08-20T23:40:10.245Z,16.4
2022-08-20T23:45:10.097Z,16.3
2022-08-20T23:50:10.198Z,16.1
2022-08-20T23:55:10.086Z,16.1
